Goodfellow Terrace, Missouri
Current Conditions -  °F | °C
As of 9:31 AM on Monday 22 Dec 2014 (Local Time) from KSTL Reporting Station
Light Rain Light Rain  
Wind Chill: 38°   Ceiling: 700
Heat Index: 45°   Visibility: 3mi
Dew Point: 39°   Wind: 14mph
Humidity: 81%   Direction: 140°SE
Pressure: 29.73"   Gusts: NA
Location:  38.694°N, 90.256°W
Report Text: KSTL 221531Z 14012KT 3SM -RA BR OVC007 07/04 A2973 RMK AO2 P0001
Loading
Personal Weather Stations






























Interactive Weather Map New forecast layout! Learn more

10-Day Weather Forecast

Advertisements
Track Severe Weather on mobile